sensor_id;sensor_type;location;lat;lon;timestamp;temperature;humidity
83828;DHT22;74656;48.870;12.562;2024-01-16T00:02:35;0.30;70.30
83828;DHT22;74656;48.870;12.562;2024-01-16T00:05:37;0.40;69.40
83828;DHT22;74656;48.870;12.562;2024-01-16T00:08:39;0.20;69.70
83828;DHT22;74656;48.870;12.562;2024-01-16T00:11:42;0.20;69.90
83828;DHT22;74656;48.870;12.562;2024-01-16T00:14:45;0.30;70.00
83828;DHT22;74656;48.870;12.562;2024-01-16T00:17:47;0.30;69.50
83828;DHT22;74656;48.870;12.562;2024-01-16T00:20:49;0.20;69.30
83828;DHT22;74656;48.870;12.562;2024-01-16T00:23:51;0.20;69.80
83828;DHT22;74656;48.870;12.562;2024-01-16T00:26:54;0.30;69.30
83828;DHT22;74656;48.870;12.562;2024-01-16T00:29:56;0.30;69.10
83828;DHT22;74656;48.870;12.562;2024-01-16T00:32:58;0.40;69.00
83828;DHT22;74656;48.870;12.562;2024-01-16T00:36:01;0.20;68.90
83828;DHT22;74656;48.870;12.562;2024-01-16T00:39:03;0.40;69.00
83828;DHT22;74656;48.870;12.562;2024-01-16T00:42:05;0.30;68.60
83828;DHT22;74656;48.870;12.562;2024-01-16T00:45:07;0.30;68.90
83828;DHT22;74656;48.870;12.562;2024-01-16T00:48:09;0.30;68.50
83828;DHT22;74656;48.870;12.562;2024-01-16T00:51:11;0.40;67.90
83828;DHT22;74656;48.870;12.562;2024-01-16T00:54:13;0.50;67.80
83828;DHT22;74656;48.870;12.562;2024-01-16T00:57:16;0.40;68.00
83828;DHT22;74656;48.870;12.562;2024-01-16T01:00:18;0.30;67.80
83828;DHT22;74656;48.870;12.562;2024-01-16T01:03:20;0.30;67.90
83828;DHT22;74656;48.870;12.562;2024-01-16T01:06:23;0.40;68.10
83828;DHT22;74656;48.870;12.562;2024-01-16T01:09:25;0.40;67.50
83828;DHT22;74656;48.870;12.562;2024-01-16T01:12:27;0.40;67.20
83828;DHT22;74656;48.870;12.562;2024-01-16T01:15:29;0.30;67.00
83828;DHT22;74656;48.870;12.562;2024-01-16T01:18:32;0.40;67.50
83828;DHT22;74656;48.870;12.562;2024-01-16T01:21:35;0.40;67.50
83828;DHT22;74656;48.870;12.562;2024-01-16T01:24:38;0.40;67.80
83828;DHT22;74656;48.870;12.562;2024-01-16T01:27:40;0.50;67.40
83828;DHT22;74656;48.870;12.562;2024-01-16T01:30:42;0.40;66.80
83828;DHT22;74656;48.870;12.562;2024-01-16T01:33:44;0.50;66.90
83828;DHT22;74656;48.870;12.562;2024-01-16T01:36:46;0.50;66.70
83828;DHT22;74656;48.870;12.562;2024-01-16T01:39:48;0.30;66.50
83828;DHT22;74656;48.870;12.562;2024-01-16T01:42:51;0.50;67.20
83828;DHT22;74656;48.870;12.562;2024-01-16T01:49:13;0.50;66.30
83828;DHT22;74656;48.870;12.562;2024-01-16T01:52:16;0.50;66.20
83828;DHT22;74656;48.870;12.562;2024-01-16T01:55:18;0.50;66.40
83828;DHT22;74656;48.870;12.562;2024-01-16T01:58:20;0.60;66.50
83828;DHT22;74656;48.870;12.562;2024-01-16T02:01:23;0.50;66.20
83828;DHT22;74656;48.870;12.562;2024-01-16T02:04:26;0.40;66.00
83828;DHT22;74656;48.870;12.562;2024-01-16T02:07:31;0.40;66.00
83828;DHT22;74656;48.870;12.562;2024-01-16T02:10:37;0.50;66.10
83828;DHT22;74656;48.870;12.562;2024-01-16T02:13:40;0.60;66.10
83828;DHT22;74656;48.870;12.562;2024-01-16T02:16:43;0.60;65.70
83828;DHT22;74656;48.870;12.562;2024-01-16T02:19:44;0.60;65.40
83828;DHT22;74656;48.870;12.562;2024-01-16T02:22:48;0.50;65.90
83828;DHT22;74656;48.870;12.562;2024-01-16T02:25:51;0.40;65.40
83828;DHT22;74656;48.870;12.562;2024-01-16T02:28:54;0.50;65.90
83828;DHT22;74656;48.870;12.562;2024-01-16T02:31:56;0.50;65.20
83828;DHT22;74656;48.870;12.562;2024-01-16T02:34:58;0.40;65.50
83828;DHT22;74656;48.870;12.562;2024-01-16T02:38:00;0.40;65.60
83828;DHT22;74656;48.870;12.562;2024-01-16T02:41:03;0.40;65.60
83828;DHT22;74656;48.870;12.562;2024-01-16T02:44:04;0.30;65.90
83828;DHT22;74656;48.870;12.562;2024-01-16T02:47:06;0.30;65.10
83828;DHT22;74656;48.870;12.562;2024-01-16T02:50:09;0.40;64.90
83828;DHT22;74656;48.870;12.562;2024-01-16T02:53:10;0.30;65.10
83828;DHT22;74656;48.870;12.562;2024-01-16T02:56:13;0.40;64.90
83828;DHT22;74656;48.870;12.562;2024-01-16T02:59:15;0.40;65.10
83828;DHT22;74656;48.870;12.562;2024-01-16T03:02:17;0.30;65.10
83828;DHT22;74656;48.870;12.562;2024-01-16T03:05:19;0.40;65.40
83828;DHT22;74656;48.870;12.562;2024-01-16T03:08:21;0.50;65.00
83828;DHT22;74656;48.870;12.562;2024-01-16T03:11:23;0.40;64.70
83828;DHT22;74656;48.870;12.562;2024-01-16T03:14:25;0.40;65.00
83828;DHT22;74656;48.870;12.562;2024-01-16T03:17:27;0.40;65.20
83828;DHT22;74656;48.870;12.562;2024-01-16T03:20:30;0.30;66.00
83828;DHT22;74656;48.870;12.562;2024-01-16T03:23:32;0.40;66.10
83828;DHT22;74656;48.870;12.562;2024-01-16T03:26:34;0.40;65.80
83828;DHT22;74656;48.870;12.562;2024-01-16T03:29:36;0.40;65.60
83828;DHT22;74656;48.870;12.562;2024-01-16T03:32:38;0.40;65.50
83828;DHT22;74656;48.870;12.562;2024-01-16T03:35:41;0.40;66.00
83828;DHT22;74656;48.870;12.562;2024-01-16T03:38:43;0.30;66.10
83828;DHT22;74656;48.870;12.562;2024-01-16T03:41:45;0.10;66.30
83828;DHT22;74656;48.870;12.562;2024-01-16T03:44:47;0.10;66.60
83828;DHT22;74656;48.870;12.562;2024-01-16T03:47:50;0.20;66.40
83828;DHT22;74656;48.870;12.562;2024-01-16T03:50:51;0.20;65.80
83828;DHT22;74656;48.870;12.562;2024-01-16T03:53:54;0.30;65.10
83828;DHT22;74656;48.870;12.562;2024-01-16T03:56:56;0.30;65.10
83828;DHT22;74656;48.870;12.562;2024-01-16T03:59:58;0.30;65.30
83828;DHT22;74656;48.870;12.562;2024-01-16T04:03:00;0.30;65.20
83828;DHT22;74656;48.870;12.562;2024-01-16T04:06:03;0.20;64.70
83828;DHT22;74656;48.870;12.562;2024-01-16T04:09:05;0.30;64.70
83828;DHT22;74656;48.870;12.562;2024-01-16T04:12:07;0.20;65.00
83828;DHT22;74656;48.870;12.562;2024-01-16T04:15:10;0.20;65.30
83828;DHT22;74656;48.870;12.562;2024-01-16T04:18:12;0.20;65.20
83828;DHT22;74656;48.870;12.562;2024-01-16T04:21:14;0.30;65.10
83828;DHT22;74656;48.870;12.562;2024-01-16T04:24:19;0.20;64.80
83828;DHT22;74656;48.870;12.562;2024-01-16T04:27:21;0.20;65.20
83828;DHT22;74656;48.870;12.562;2024-01-16T04:30:24;0.20;64.80
83828;DHT22;74656;48.870;12.562;2024-01-16T04:33:26;0.10;65.00
83828;DHT22;74656;48.870;12.562;2024-01-16T04:36:28;0.10;64.90
83828;DHT22;74656;48.870;12.562;2024-01-16T04:39:30;0.10;64.80
83828;DHT22;74656;48.870;12.562;2024-01-16T04:42:32;0.10;64.70
83828;DHT22;74656;48.870;12.562;2024-01-16T04:45:34;0.00;64.80
83828;DHT22;74656;48.870;12.562;2024-01-16T04:48:36;0.10;65.10
83828;DHT22;74656;48.870;12.562;2024-01-16T04:51:38;0.20;64.80
83828;DHT22;74656;48.870;12.562;2024-01-16T04:54:40;0.10;65.10
83828;DHT22;74656;48.870;12.562;2024-01-16T04:57:42;0.10;65.30
83828;DHT22;74656;48.870;12.562;2024-01-16T05:00:44;0.10;65.60
83828;DHT22;74656;48.870;12.562;2024-01-16T05:03:47;0.10;65.20
83828;DHT22;74656;48.870;12.562;2024-01-16T05:06:52;0.10;65.50
83828;DHT22;74656;48.870;12.562;2024-01-16T05:09:54;0.10;65.40
83828;DHT22;74656;48.870;12.562;2024-01-16T05:12:56;0.30;64.90
83828;DHT22;74656;48.870;12.562;2024-01-16T05:15:58;0.20;64.80
83828;DHT22;74656;48.870;12.562;2024-01-16T05:19:01;0.10;65.10
83828;DHT22;74656;48.870;12.562;2024-01-16T05:22:03;0.10;65.40
83828;DHT22;74656;48.870;12.562;2024-01-16T05:25:06;0.10;65.30
83828;DHT22;74656;48.870;12.562;2024-01-16T05:28:08;0.00;65.30
83828;DHT22;74656;48.870;12.562;2024-01-16T05:31:10;0.10;65.80
83828;DHT22;74656;48.870;12.562;2024-01-16T05:34:12;0.10;64.80
83828;DHT22;74656;48.870;12.562;2024-01-16T05:37:14;0.10;64.30
83828;DHT22;74656;48.870;12.562;2024-01-16T05:40:16;0.10;64.30
83828;DHT22;74656;48.870;12.562;2024-01-16T05:43:18;0.20;64.40
83828;DHT22;74656;48.870;12.562;2024-01-16T05:46:20;0.10;64.10
83828;DHT22;74656;48.870;12.562;2024-01-16T05:49:22;0.10;64.10
83828;DHT22;74656;48.870;12.562;2024-01-16T05:52:25;0.00;63.10
83828;DHT22;74656;48.870;12.562;2024-01-16T05:55:27;0.00;62.60
83828;DHT22;74656;48.870;12.562;2024-01-16T05:58:29;0.00;62.20
83828;DHT22;74656;48.870;12.562;2024-01-16T06:01:31;-0.20;62.60
83828;DHT22;74656;48.870;12.562;2024-01-16T06:04:33;-0.10;62.60
83828;DHT22;74656;48.870;12.562;2024-01-16T06:07:36;-0.20;62.80
83828;DHT22;74656;48.870;12.562;2024-01-16T06:10:37;-0.30;63.20
83828;DHT22;74656;48.870;12.562;2024-01-16T06:13:39;-0.30;63.10
83828;DHT22;74656;48.870;12.562;2024-01-16T06:16:41;-0.30;63.20
83828;DHT22;74656;48.870;12.562;2024-01-16T06:19:43;-0.40;63.10
83828;DHT22;74656;48.870;12.562;2024-01-16T06:22:45;-0.40;63.30
83828;DHT22;74656;48.870;12.562;2024-01-16T06:25:47;-0.40;63.60
83828;DHT22;74656;48.870;12.562;2024-01-16T06:28:50;-0.40;64.00
83828;DHT22;74656;48.870;12.562;2024-01-16T06:31:51;-0.60;64.40
83828;DHT22;74656;48.870;12.562;2024-01-16T06:34:53;-0.80;64.80
83828;DHT22;74656;48.870;12.562;2024-01-16T06:37:56;-0.80;64.50
83828;DHT22;74656;48.870;12.562;2024-01-16T06:40:58;-1.00;65.60
83828;DHT22;74656;48.870;12.562;2024-01-16T06:44:00;-1.00;65.80
83828;DHT22;74656;48.870;12.562;2024-01-16T06:47:02;-0.90;65.00
83828;DHT22;74656;48.870;12.562;2024-01-16T06:50:05;-1.10;64.90
83828;DHT22;74656;48.870;12.562;2024-01-16T06:53:07;-1.00;65.00
83828;DHT22;74656;48.870;12.562;2024-01-16T06:56:10;-0.80;64.90
83828;DHT22;74656;48.870;12.562;2024-01-16T06:59:12;-0.60;64.10
83828;DHT22;74656;48.870;12.562;2024-01-16T07:02:13;-0.60;64.60
83828;DHT22;74656;48.870;12.562;2024-01-16T07:05:16;-0.60;63.90
83828;DHT22;74656;48.870;12.562;2024-01-16T07:08:18;-0.60;63.00
83828;DHT22;74656;48.870;12.562;2024-01-16T07:11:20;-0.50;62.40
83828;DHT22;74656;48.870;12.562;2024-01-16T07:14:26;-0.50;62.40
83828;DHT22;74656;48.870;12.562;2024-01-16T07:17:27;-0.40;62.60
83828;DHT22;74656;48.870;12.562;2024-01-16T07:20:30;-0.40;63.50
83828;DHT22;74656;48.870;12.562;2024-01-16T07:23:32;-0.30;63.70
83828;DHT22;74656;48.870;12.562;2024-01-16T07:26:34;-0.30;62.90
83828;DHT22;74656;48.870;12.562;2024-01-16T07:29:38;-0.20;62.90
83828;DHT22;74656;48.870;12.562;2024-01-16T07:32:40;-0.30;63.50
83828;DHT22;74656;48.870;12.562;2024-01-16T07:35:42;-0.20;63.10
83828;DHT22;74656;48.870;12.562;2024-01-16T07:38:44;-0.10;62.30
83828;DHT22;74656;48.870;12.562;2024-01-16T07:41:46;0.00;61.70
83828;DHT22;74656;48.870;12.562;2024-01-16T07:44:48;0.00;61.40
83828;DHT22;74656;48.870;12.562;2024-01-16T07:47:50;0.00;61.30
83828;DHT22;74656;48.870;12.562;2024-01-16T07:50:52;0.10;65.30
83828;DHT22;74656;48.870;12.562;2024-01-16T07:54:05;0.10;62.50
83828;DHT22;74656;48.870;12.562;2024-01-16T07:57:07;0.10;61.10
83828;DHT22;74656;48.870;12.562;2024-01-16T08:00:10;0.30;59.70
83828;DHT22;74656;48.870;12.562;2024-01-16T08:03:12;0.20;59.90
83828;DHT22;74656;48.870;12.562;2024-01-16T08:06:14;0.30;59.40
83828;DHT22;74656;48.870;12.562;2024-01-16T08:09:16;0.30;59.30
83828;DHT22;74656;48.870;12.562;2024-01-16T08:12:19;0.40;58.70
83828;DHT22;74656;48.870;12.562;2024-01-16T08:15:21;0.50;58.70
83828;DHT22;74656;48.870;12.562;2024-01-16T08:18:23;0.50;58.00
83828;DHT22;74656;48.870;12.562;2024-01-16T08:21:25;0.40;58.00
83828;DHT22;74656;48.870;12.562;2024-01-16T08:24:27;0.50;58.40
83828;DHT22;74656;48.870;12.562;2024-01-16T08:27:29;0.60;57.90
83828;DHT22;74656;48.870;12.562;2024-01-16T08:30:31;0.70;57.60
83828;DHT22;74656;48.870;12.562;2024-01-16T08:33:33;0.70;57.00
83828;DHT22;74656;48.870;12.562;2024-01-16T08:36:46;0.80;57.10
83828;DHT22;74656;48.870;12.562;2024-01-16T08:39:49;0.70;56.50
83828;DHT22;74656;48.870;12.562;2024-01-16T08:42:51;0.70;55.80
83828;DHT22;74656;48.870;12.562;2024-01-16T08:45:56;0.80;55.60
83828;DHT22;74656;48.870;12.562;2024-01-16T08:48:58;0.80;55.90
83828;DHT22;74656;48.870;12.562;2024-01-16T08:52:01;0.90;58.30
83828;DHT22;74656;48.870;12.562;2024-01-16T08:55:03;1.10;56.20
83828;DHT22;74656;48.870;12.562;2024-01-16T08:58:05;1.00;55.60
83828;DHT22;74656;48.870;12.562;2024-01-16T09:01:07;1.10;54.50
83828;DHT22;74656;48.870;12.562;2024-01-16T09:04:09;1.10;54.50
83828;DHT22;74656;48.870;12.562;2024-01-16T09:07:12;1.00;54.50
83828;DHT22;74656;48.870;12.562;2024-01-16T09:10:14;1.20;54.00
83828;DHT22;74656;48.870;12.562;2024-01-16T09:13:16;1.20;54.10
83828;DHT22;74656;48.870;12.562;2024-01-16T09:16:18;1.30;54.80
83828;DHT22;74656;48.870;12.562;2024-01-16T09:19:20;1.30;54.30
83828;DHT22;74656;48.870;12.562;2024-01-16T09:22:22;1.00;55.30
83828;DHT22;74656;48.870;12.562;2024-01-16T09:25:24;1.10;55.60
83828;DHT22;74656;48.870;12.562;2024-01-16T09:28:26;1.20;54.80
83828;DHT22;74656;48.870;12.562;2024-01-16T09:31:28;1.40;54.60
83828;DHT22;74656;48.870;12.562;2024-01-16T09:34:31;1.40;54.00
83828;DHT22;74656;48.870;12.562;2024-01-16T09:37:33;1.50;53.30
83828;DHT22;74656;48.870;12.562;2024-01-16T09:40:35;1.20;54.00
83828;DHT22;74656;48.870;12.562;2024-01-16T09:43:38;1.20;54.60
83828;DHT22;74656;48.870;12.562;2024-01-16T09:46:43;1.50;54.30
83828;DHT22;74656;48.870;12.562;2024-01-16T09:49:46;1.70;54.30
83828;DHT22;74656;48.870;12.562;2024-01-16T09:52:49;1.80;54.10
83828;DHT22;74656;48.870;12.562;2024-01-16T09:55:54;1.80;53.20
83828;DHT22;74656;48.870;12.562;2024-01-16T09:59:03;1.80;53.50
83828;DHT22;74656;48.870;12.562;2024-01-16T10:02:10;2.10;53.80
83828;DHT22;74656;48.870;12.562;2024-01-16T10:05:13;2.00;52.80
83828;DHT22;74656;48.870;12.562;2024-01-16T10:08:15;1.90;53.10
83828;DHT22;74656;48.870;12.562;2024-01-16T10:11:18;1.90;53.80
83828;DHT22;74656;48.870;12.562;2024-01-16T10:14:20;2.10;53.50
83828;DHT22;74656;48.870;12.562;2024-01-16T10:17:22;2.30;52.90
83828;DHT22;74656;48.870;12.562;2024-01-16T10:20:33;2.20;52.60
83828;DHT22;74656;48.870;12.562;2024-01-16T10:23:35;2.30;52.80
83828;DHT22;74656;48.870;12.562;2024-01-16T10:26:38;2.30;52.50
83828;DHT22;74656;48.870;12.562;2024-01-16T10:29:54;2.10;53.20
83828;DHT22;74656;48.870;12.562;2024-01-16T10:33:12;2.50;52.80
83828;DHT22;74656;48.870;12.562;2024-01-16T10:36:16;2.50;51.40
83828;DHT22;74656;48.870;12.562;2024-01-16T10:39:18;2.60;52.10
83828;DHT22;74656;48.870;12.562;2024-01-16T10:42:21;2.70;51.00
83828;DHT22;74656;48.870;12.562;2024-01-16T10:45:23;2.80;50.60
83828;DHT22;74656;48.870;12.562;2024-01-16T10:48:25;3.10;50.80
83828;DHT22;74656;48.870;12.562;2024-01-16T10:51:28;3.20;49.80
83828;DHT22;74656;48.870;12.562;2024-01-16T10:54:32;3.30;50.10
83828;DHT22;74656;48.870;12.562;2024-01-16T10:57:40;3.20;50.60
83828;DHT22;74656;48.870;12.562;2024-01-16T11:00:43;3.20;50.00
83828;DHT22;74656;48.870;12.562;2024-01-16T11:03:49;3.50;49.70
83828;DHT22;74656;48.870;12.562;2024-01-16T11:06:52;3.80;49.30
83828;DHT22;74656;48.870;12.562;2024-01-16T11:09:55;3.70;49.00
83828;DHT22;74656;48.870;12.562;2024-01-16T11:13:03;3.40;48.90
83828;DHT22;74656;48.870;12.562;2024-01-16T11:16:08;4.00;47.70
83828;DHT22;74656;48.870;12.562;2024-01-16T11:19:12;3.70;46.40
83828;DHT22;74656;48.870;12.562;2024-01-16T11:22:43;4.10;46.80
83828;DHT22;74656;48.870;12.562;2024-01-16T11:25:46;3.80;47.60
83828;DHT22;74656;48.870;12.562;2024-01-16T11:28:48;4.30;46.10
83828;DHT22;74656;48.870;12.562;2024-01-16T11:31:50;4.50;44.90
83828;DHT22;74656;48.870;12.562;2024-01-16T11:34:53;4.40;44.30
83828;DHT22;74656;48.870;12.562;2024-01-16T11:38:06;3.80;45.20
83828;DHT22;74656;48.870;12.562;2024-01-16T11:41:10;3.70;46.00
83828;DHT22;74656;48.870;12.562;2024-01-16T11:44:36;3.80;46.70
83828;DHT22;74656;48.870;12.562;2024-01-16T11:47:38;3.80;46.90
83828;DHT22;74656;48.870;12.562;2024-01-16T11:50:40;4.10;46.10
83828;DHT22;74656;48.870;12.562;2024-01-16T11:53:42;4.30;46.00
83828;DHT22;74656;48.870;12.562;2024-01-16T12:00:32;4.40;45.40
83828;DHT22;74656;48.870;12.562;2024-01-16T12:03:34;4.60;45.70
83828;DHT22;74656;48.870;12.562;2024-01-16T12:06:37;4.80;45.60
83828;DHT22;74656;48.870;12.562;2024-01-16T12:09:40;5.20;44.10
83828;DHT22;74656;48.870;12.562;2024-01-16T12:12:41;5.00;43.10
83828;DHT22;74656;48.870;12.562;2024-01-16T12:15:44;5.00;44.30
83828;DHT22;74656;48.870;12.562;2024-01-16T12:18:46;5.60;43.90
83828;DHT22;74656;48.870;12.562;2024-01-16T12:21:50;5.90;42.30
83828;DHT22;74656;48.870;12.562;2024-01-16T12:24:56;5.80;42.20
83828;DHT22;74656;48.870;12.562;2024-01-16T12:27:59;6.30;41.80
83828;DHT22;74656;48.870;12.562;2024-01-16T12:31:01;6.50;41.10
83828;DHT22;74656;48.870;12.562;2024-01-16T12:34:09;6.10;41.60
83828;DHT22;74656;48.870;12.562;2024-01-16T12:37:13;6.30;41.60
83828;DHT22;74656;48.870;12.562;2024-01-16T12:40:15;6.60;39.90
83828;DHT22;74656;48.870;12.562;2024-01-16T12:43:18;6.10;40.40
83828;DHT22;74656;48.870;12.562;2024-01-16T12:46:20;5.30;41.50
83828;DHT22;74656;48.870;12.562;2024-01-16T12:49:23;5.10;42.20
83828;DHT22;74656;48.870;12.562;2024-01-16T12:52:25;4.90;43.60
83828;DHT22;74656;48.870;12.562;2024-01-16T12:55:28;4.80;43.20
83828;DHT22;74656;48.870;12.562;2024-01-16T12:58:35;4.50;43.50
83828;DHT22;74656;48.870;12.562;2024-01-16T13:01:40;4.70;44.10
83828;DHT22;74656;48.870;12.562;2024-01-16T13:04:42;4.50;43.90
83828;DHT22;74656;48.870;12.562;2024-01-16T13:07:45;4.50;45.10
83828;DHT22;74656;48.870;12.562;2024-01-16T13:10:47;4.60;45.10
83828;DHT22;74656;48.870;12.562;2024-01-16T13:14:04;4.40;44.00
83828;DHT22;74656;48.870;12.562;2024-01-16T13:17:06;4.40;44.40
83828;DHT22;74656;48.870;12.562;2024-01-16T13:20:09;4.20;44.40
83828;DHT22;74656;48.870;12.562;2024-01-16T13:23:12;4.50;44.20
83828;DHT22;74656;48.870;12.562;2024-01-16T13:26:14;5.20;43.40
83828;DHT22;74656;48.870;12.562;2024-01-16T13:29:16;5.00;42.70
83828;DHT22;74656;48.870;12.562;2024-01-16T13:32:19;4.80;42.80
83828;DHT22;74656;48.870;12.562;2024-01-16T13:35:21;5.00;41.90
83828;DHT22;74656;48.870;12.562;2024-01-16T13:38:23;4.30;43.30
83828;DHT22;74656;48.870;12.562;2024-01-16T13:41:26;3.90;44.40
83828;DHT22;74656;48.870;12.562;2024-01-16T13:44:28;3.70;45.00
83828;DHT22;74656;48.870;12.562;2024-01-16T13:47:30;3.70;44.90
83828;DHT22;74656;48.870;12.562;2024-01-16T13:50:33;3.60;45.80
83828;DHT22;74656;48.870;12.562;2024-01-16T13:53:35;3.80;49.40
83828;DHT22;74656;48.870;12.562;2024-01-16T13:56:38;3.70;49.80
83828;DHT22;74656;48.870;12.562;2024-01-16T14:00:00;3.70;46.80
83828;DHT22;74656;48.870;12.562;2024-01-16T14:03:12;3.50;46.00
83828;DHT22;74656;48.870;12.562;2024-01-16T14:06:14;3.20;46.70
83828;DHT22;74656;48.870;12.562;2024-01-16T14:09:33;3.00;47.20
83828;DHT22;74656;48.870;12.562;2024-01-16T14:12:35;2.50;47.90
83828;DHT22;74656;48.870;12.562;2024-01-16T14:15:38;2.40;49.10
83828;DHT22;74656;48.870;12.562;2024-01-16T14:18:39;2.50;49.70
83828;DHT22;74656;48.870;12.562;2024-01-16T14:21:41;2.70;51.90
83828;DHT22;74656;48.870;12.562;2024-01-16T14:24:43;2.50;51.20
83828;DHT22;74656;48.870;12.562;2024-01-16T14:27:59;2.40;49.90
83828;DHT22;74656;48.870;12.562;2024-01-16T14:31:01;2.30;50.10
83828;DHT22;74656;48.870;12.562;2024-01-16T14:34:04;2.40;50.10
83828;DHT22;74656;48.870;12.562;2024-01-16T14:37:07;2.30;49.70
83828;DHT22;74656;48.870;12.562;2024-01-16T14:40:09;2.30;50.30
83828;DHT22;74656;48.870;12.562;2024-01-16T14:43:11;2.00;50.40
83828;DHT22;74656;48.870;12.562;2024-01-16T14:46:13;2.10;51.70
83828;DHT22;74656;48.870;12.562;2024-01-16T14:49:15;2.10;52.50
83828;DHT22;74656;48.870;12.562;2024-01-16T14:52:18;2.00;54.10
83828;DHT22;74656;48.870;12.562;2024-01-16T14:55:20;2.30;55.40
83828;DHT22;74656;48.870;12.562;2024-01-16T14:58:22;2.20;54.60
83828;DHT22;74656;48.870;12.562;2024-01-16T15:01:24;2.00;55.00
83828;DHT22;74656;48.870;12.562;2024-01-16T15:04:26;1.80;56.00
83828;DHT22;74656;48.870;12.562;2024-01-16T15:07:28;1.90;56.30
83828;DHT22;74656;48.870;12.562;2024-01-16T15:10:31;1.80;57.00
83828;DHT22;74656;48.870;12.562;2024-01-16T15:13:33;1.60;57.90
83828;DHT22;74656;48.870;12.562;2024-01-16T15:16:35;1.50;58.70
83828;DHT22;74656;48.870;12.562;2024-01-16T15:19:37;1.40;58.70
83828;DHT22;74656;48.870;12.562;2024-01-16T15:22:44;1.30;59.30
83828;DHT22;74656;48.870;12.562;2024-01-16T15:25:47;1.20;59.70
83828;DHT22;74656;48.870;12.562;2024-01-16T15:28:50;1.10;59.80
83828;DHT22;74656;48.870;12.562;2024-01-16T15:31:52;1.10;60.30
83828;DHT22;74656;48.870;12.562;2024-01-16T15:34:54;1.00;60.10
83828;DHT22;74656;48.870;12.562;2024-01-16T15:37:56;1.00;60.00
83828;DHT22;74656;48.870;12.562;2024-01-16T15:40:58;1.00;60.50
83828;DHT22;74656;48.870;12.562;2024-01-16T15:44:01;1.10;67.30
83828;DHT22;74656;48.870;12.562;2024-01-16T15:47:12;1.60;69.40
83828;DHT22;74656;48.870;12.562;2024-01-16T15:50:15;2.00;66.20
83828;DHT22;74656;48.870;12.562;2024-01-16T15:53:18;1.80;61.40
83828;DHT22;74656;48.870;12.562;2024-01-16T15:56:20;2.00;60.30
83828;DHT22;74656;48.870;12.562;2024-01-16T15:59:22;1.70;59.80
83828;DHT22;74656;48.870;12.562;2024-01-16T16:02:24;1.40;59.90
83828;DHT22;74656;48.870;12.562;2024-01-16T16:05:27;1.20;60.80
83828;DHT22;74656;48.870;12.562;2024-01-16T16:08:29;1.10;60.90
83828;DHT22;74656;48.870;12.562;2024-01-16T16:11:38;0.80;61.90
83828;DHT22;74656;48.870;12.562;2024-01-16T16:14:40;0.70;62.90
83828;DHT22;74656;48.870;12.562;2024-01-16T16:17:42;0.60;63.70
83828;DHT22;74656;48.870;12.562;2024-01-16T16:20:45;0.70;64.40
83828;DHT22;74656;48.870;12.562;2024-01-16T16:23:47;0.60;63.90
83828;DHT22;74656;48.870;12.562;2024-01-16T16:26:49;0.50;64.40
83828;DHT22;74656;48.870;12.562;2024-01-16T16:29:53;0.40;64.80
83828;DHT22;74656;48.870;12.562;2024-01-16T16:32:55;0.30;65.30
83828;DHT22;74656;48.870;12.562;2024-01-16T16:35:57;0.40;66.10
83828;DHT22;74656;48.870;12.562;2024-01-16T16:39:00;0.40;65.60
83828;DHT22;74656;48.870;12.562;2024-01-16T16:42:02;0.30;66.00
83828;DHT22;74656;48.870;12.562;2024-01-16T16:45:05;0.20;66.30
83828;DHT22;74656;48.870;12.562;2024-01-16T16:48:07;0.20;66.80
83828;DHT22;74656;48.870;12.562;2024-01-16T16:51:12;0.30;66.80
83828;DHT22;74656;48.870;12.562;2024-01-16T16:54:14;0.20;67.50
83828;DHT22;74656;48.870;12.562;2024-01-16T16:57:16;0.10;67.20
83828;DHT22;74656;48.870;12.562;2024-01-16T17:00:19;0.10;67.70
83828;DHT22;74656;48.870;12.562;2024-01-16T17:03:21;0.10;67.70
83828;DHT22;74656;48.870;12.562;2024-01-16T17:06:23;0.10;68.00
83828;DHT22;74656;48.870;12.562;2024-01-16T17:09:25;0.10;68.30
83828;DHT22;74656;48.870;12.562;2024-01-16T17:12:27;0.00;68.30
83828;DHT22;74656;48.870;12.562;2024-01-16T17:15:29;0.00;68.60
83828;DHT22;74656;48.870;12.562;2024-01-16T17:18:32;0.00;68.90
83828;DHT22;74656;48.870;12.562;2024-01-16T17:21:34;0.00;69.20
83828;DHT22;74656;48.870;12.562;2024-01-16T17:24:36;0.00;69.60
83828;DHT22;74656;48.870;12.562;2024-01-16T17:27:38;0.00;69.70
83828;DHT22;74656;48.870;12.562;2024-01-16T17:30:41;0.00;69.70
83828;DHT22;74656;48.870;12.562;2024-01-16T17:33:43;0.00;69.70
83828;DHT22;74656;48.870;12.562;2024-01-16T17:36:45;0.00;70.00
83828;DHT22;74656;48.870;12.562;2024-01-16T17:39:47;0.00;71.20
83828;DHT22;74656;48.870;12.562;2024-01-16T17:42:48;0.00;72.20
83828;DHT22;74656;48.870;12.562;2024-01-16T17:45:51;-0.10;71.10
83828;DHT22;74656;48.870;12.562;2024-01-16T17:48:53;-0.10;70.60
83828;DHT22;74656;48.870;12.562;2024-01-16T17:51:55;-0.20;72.30
83828;DHT22;74656;48.870;12.562;2024-01-16T17:54:57;-0.10;71.80
83828;DHT22;74656;48.870;12.562;2024-01-16T17:58:03;-0.10;70.70
83828;DHT22;74656;48.870;12.562;2024-01-16T18:01:05;-0.10;71.90
83828;DHT22;74656;48.870;12.562;2024-01-16T18:04:08;-0.20;72.20
83828;DHT22;74656;48.870;12.562;2024-01-16T18:07:09;-0.20;71.40
83828;DHT22;74656;48.870;12.562;2024-01-16T18:10:11;-0.10;71.10
83828;DHT22;74656;48.870;12.562;2024-01-16T18:13:14;-0.10;71.20
83828;DHT22;74656;48.870;12.562;2024-01-16T18:16:16;-0.10;72.90
83828;DHT22;74656;48.870;12.562;2024-01-16T18:19:18;-0.10;73.20
83828;DHT22;74656;48.870;12.562;2024-01-16T18:22:20;-0.10;71.90
83828;DHT22;74656;48.870;12.562;2024-01-16T18:25:22;-0.20;71.40
83828;DHT22;74656;48.870;12.562;2024-01-16T18:28:24;-0.30;71.30
83828;DHT22;74656;48.870;12.562;2024-01-16T18:31:26;-0.40;71.60
83828;DHT22;74656;48.870;12.562;2024-01-16T18:34:28;-0.40;72.80
83828;DHT22;74656;48.870;12.562;2024-01-16T18:37:30;-0.50;73.70
83828;DHT22;74656;48.870;12.562;2024-01-16T18:40:33;-0.50;75.10
83828;DHT22;74656;48.870;12.562;2024-01-16T18:43:34;-0.40;75.10
83828;DHT22;74656;48.870;12.562;2024-01-16T18:46:36;-0.50;74.80
83828;DHT22;74656;48.870;12.562;2024-01-16T18:49:38;-0.50;74.00
83828;DHT22;74656;48.870;12.562;2024-01-16T18:52:40;-0.60;73.50
83828;DHT22;74656;48.870;12.562;2024-01-16T18:55:42;-0.60;73.60
83828;DHT22;74656;48.870;12.562;2024-01-16T18:58:44;-0.80;74.00
83828;DHT22;74656;48.870;12.562;2024-01-16T19:01:45;-0.90;74.90
83828;DHT22;74656;48.870;12.562;2024-01-16T19:04:48;-1.00;75.50
83828;DHT22;74656;48.870;12.562;2024-01-16T19:07:50;-1.20;75.60
83828;DHT22;74656;48.870;12.562;2024-01-16T19:10:53;-1.30;76.80
83828;DHT22;74656;48.870;12.562;2024-01-16T19:13:55;-1.40;78.10
83828;DHT22;74656;48.870;12.562;2024-01-16T19:16:57;-1.50;78.40
83828;DHT22;74656;48.870;12.562;2024-01-16T19:19:59;-1.70;78.10